Time;durP1;ratioP1;P1;durP2;ratioP2;P2;SDS_P1;SDS_P2;PMS_P1;PMS_P2;Temp;Humidity;BMP_temperature;BMP_pressure;BME280_temperature;BME280_humidity;BME280_pressure;Samples;Min_cycle;Max_cycle;Signal;HPM_P1;HPM_P2
2021/06/30 00:00:09;;;;;;;14.33;7.90;;;;;;;16.05;81.90;101099.53;5031551;28;20439;-83
2021/06/30 00:03:03;;;;;;;14.80;8.30;;;;;;;15.78;81.92;101037.66;5019882;28;20504;-84
2021/06/30 00:05:33;;;;;;;16.33;7.60;;;;;;;15.36;82.24;100982.66;5039895;28;20924;-83
2021/06/30 00:08:26;;;;;;;15.23;8.00;;;;;;;16.09;82.06;101089.09;5025181;28;20427;-83
2021/06/30 00:11:01;;;;;;;21.60;7.90;;;;;;;16.02;82.28;101102.69;5023744;28;20455;-82
2021/06/30 00:13:30;;;;;;;17.90;8.70;;;;;;;15.98;82.72;101099.63;5024885;28;20529;-82
2021/06/30 00:16:20;;;;;;;20.40;8.37;;;;;;;15.98;82.71;101087.97;5031747;28;20433;-85
2021/06/30 00:19:21;;;;;;;20.00;8.20;;;;;;;15.91;83.12;101089.94;5039795;28;20533;-82
2021/06/30 00:22:03;;;;;;;18.60;7.70;;;;;;;16.05;82.38;101096.81;5031362;28;20478;-85
2021/06/30 00:25:00;;;;;;;19.03;8.43;;;;;;;16.05;83.07;101096.81;5026323;28;20445;-82
2021/06/30 00:27:50;;;;;;;13.50;7.73;;;;;;;16.08;82.71;101084.72;5025529;28;20463;-83
2021/06/30 00:30:20;;;;;;;19.23;9.50;;;;;;;15.97;82.97;101078.22;5010146;28;20487;-84
2021/06/30 00:33:07;;;;;;;20.83;8.70;;;;;;;15.90;83.58;101091.00;5016672;28;20495;-83
2021/06/30 00:35:41;;;;;;;18.77;8.87;;;;;;;15.95;83.04;101069.50;5001519;28;20435;-85
2021/06/30 00:38:14;;;;;;;14.37;8.40;;;;;;;15.85;83.09;101058.38;5004939;28;20492;-84
2021/06/30 00:41:12;;;;;;;17.73;9.50;;;;;;;16.01;82.48;101095.63;5003455;28;20463;-84
2021/06/30 00:43:41;;;;;;;18.43;8.87;;;;;;;15.76;83.14;101060.59;5002809;28;20969;-83
2021/06/30 00:46:31;;;;;;;17.10;10.17;;;;;;;15.93;83.24;101093.25;5007646;28;20440;-82
2021/06/30 00:49:06;;;;;;;18.00;9.13;;;;;;;15.92;82.75;101065.38;5006667;28;20933;-85
2021/06/30 00:51:40;;;;;;;13.30;9.10;;;;;;;15.47;82.78;100987.28;5011523;28;20502;-83
2021/06/30 00:54:11;;;;;;;21.30;10.07;;;;;;;16.04;83.12;101092.47;5019399;28;20503;-83
2021/06/30 00:56:50;;;;;;;19.07;10.50;;;;;;;16.12;82.50;101088.63;5016691;28;20527;-86
2021/06/30 00:59:28;;;;;;;15.73;9.87;;;;;;;15.97;82.48;101054.69;5020025;28;20454;-83
2021/06/30 01:02:00;;;;;;;22.87;10.07;;;;;;;15.76;82.67;101028.13;5006419;28;20447;-85
2021/06/30 01:04:33;;;;;;;15.63;10.20;;;;;;;15.89;83.21;101097.47;5010623;28;20424;-84
2021/06/30 01:07:10;;;;;;;17.80;9.70;;;;;;;15.78;83.33;101053.91;5005448;28;20465;-83
2021/06/30 01:10:02;;;;;;;13.50;9.20;;;;;;;16.00;83.13;101084.00;5020239;28;20444;-83
2021/06/30 01:12:31;;;;;;;20.17;10.40;;;;;;;15.83;83.45;101088.38;5020308;28;21033;-84
2021/06/30 01:18:17;;;;;;;18.90;9.67;;;;;;;15.97;82.96;101072.81;5002581;28;20444;-82
2021/06/30 01:21:36;;;;;;;20.53;9.50;;;;;;;15.44;83.25;101005.84;5009972;28;20750;-84
2021/06/30 01:24:06;;;;;;;32.20;10.70;;;;;;;15.98;82.42;101064.47;5016011;28;20436;-85
2021/06/30 01:26:41;;;;;;;21.47;9.17;;;;;;;15.89;82.77;101082.06;5019241;28;20441;-82
2021/06/30 01:29:18;;;;;;;20.10;9.50;;;;;;;15.85;83.01;101083.56;5015672;28;20427;-82
2021/06/30 01:32:04;;;;;;;19.90;9.60;;;;;;;15.84;83.14;101081.91;5020071;28;20459;-83
2021/06/30 01:34:35;;;;;;;20.47;9.10;;;;;;;15.88;82.59;101066.06;5003985;28;20441;-82
2021/06/30 01:37:23;;;;;;;18.43;8.97;;;;;;;15.77;82.50;101048.72;5003684;28;20450;-82
2021/06/30 01:40:26;;;;;;;21.80;9.37;;;;;;;15.93;82.90;101071.59;5002482;28;20452;-84
2021/06/30 01:43:20;;;;;;;15.50;9.00;;;;;;;15.73;82.97;101052.94;5019273;28;20431;-81
2021/06/30 01:46:22;;;;;;;;;;;;;;;;;;;;;
2021/06/30 01:49:03;;;;;;;13.97;8.93;;;;;;;15.85;82.93;101066.50;5021650;28;20460;-84
2021/06/30 01:52:07;;;;;;;16.63;9.03;;;;;;;15.70;83.69;101077.72;5022384;28;20459;-82
2021/06/30 01:54:41;;;;;;;16.40;9.07;;;;;;;15.85;82.94;101069.22;5002731;28;20451;-82
2021/06/30 01:57:57;;;;;;;11.93;8.23;;;;;;;15.90;82.38;101064.78;5003906;28;20433;-86
2021/06/30 02:00:47;;;;;;;16.20;8.67;;;;;;;15.92;82.15;101068.09;5004830;28;20481;-83
2021/06/30 02:03:18;;;;;;;16.30;8.70;;;;;;;15.75;82.77;101065.19;5005764;28;20424;-84
2021/06/30 02:05:53;;;;;;;12.60;7.93;;;;;;;15.77;83.08;101067.66;5004424;28;20538;-83
2021/06/30 02:08:48;;;;;;;25.87;9.07;;;;;;;15.80;83.49;101067.22;5011715;28;20498;-85
2021/06/30 02:14:51;;;;;;;15.93;9.37;;;;;;;12.85;82.50;100602.78;5013627;28;20452;-84
2021/06/30 02:17:33;;;;;;;17.23;9.30;;;;;;;15.84;82.20;101059.47;5018184;28;21005;-85
2021/06/30 02:20:22;;;;;;;16.93;8.83;;;;;;;15.67;83.21;101045.69;5010068;28;20467;-84
2021/06/30 02:23:02;;;;;;;16.43;9.43;;;;;;;15.52;82.66;101036.09;5019879;28;20432;-85
2021/06/30 02:25:45;;;;;;;15.43;9.50;;;;;;;15.55;83.24;101034.81;5003248;28;20468;-84
2021/06/30 02:28:22;;;;;;;17.90;8.43;;;;;;;15.73;82.73;101051.03;5008713;28;20431;-82
2021/06/30 02:31:16;;;;;;;15.70;9.30;;;;;;;15.82;81.96;101051.56;5008441;28;20550;-86
2021/06/30 02:33:52;;;;;;;17.90;9.73;;;;;;;15.03;82.83;100945.22;5022115;28;20460;-83
2021/06/30 02:36:35;;;;;;;15.60;9.00;;;;;;;15.39;83.09;101025.47;5019403;28;20432;-83
2021/06/30 02:40:03;;;;;;;19.40;9.70;;;;;;;15.57;82.69;101043.53;5007038;28;20436;-83
2021/06/30 02:42:25;;;;;;;17.20;9.67;;;;;;;15.52;82.88;101038.81;5012790;28;20447;-82
2021/06/30 02:46:02;;;;;;;16.80;7.77;;;;;;;14.80;82.55;100916.19;5025249;28;20462;-83
2021/06/30 02:48:33;;;;;;;18.23;8.67;;;;;;;15.60;83.05;101041.19;5015989;28;20462;-84
2021/06/30 02:54:44;;;;;;;14.53;7.77;;;;;;;15.73;81.81;101058.34;5025672;28;20467;-83
2021/06/30 02:57:27;;;;;;;13.40;8.20;;;;;;;15.64;82.26;101056.97;5006165;28;20499;-81
2021/06/30 03:00:34;;;;;;;12.80;7.00;;;;;;;15.66;82.23;101063.00;5009996;28;20452;-81
2021/06/30 03:03:26;;;;;;;14.10;7.80;;;;;;;15.66;82.17;101076.50;5019630;28;20433;-82
2021/06/30 03:05:58;;;;;;;13.80;8.47;;;;;;;15.75;81.78;101081.41;5010080;28;20437;-83
2021/06/30 03:08:42;;;;;;;10.80;7.17;;;;;;;15.67;81.73;101075.44;5007176;28;20472;-81
2021/06/30 03:11:38;;;;;;;14.00;7.47;;;;;;;15.63;82.14;101071.56;5013160;28;20464;-84
2021/06/30 03:14:47;;;;;;;9.60;7.37;;;;;;;15.60;82.02;101068.25;5006111;28;20541;-80
2021/06/30 03:17:44;;;;;;;10.63;6.90;;;;;;;15.44;82.20;101063.44;5001553;28;20519;-82
2021/06/30 03:20:27;;;;;;;;;;;;;;;;;;;;;
2021/06/30 03:22:59;;;;;;;11.20;8.10;;;;;;;15.35;82.89;101072.91;5024188;28;20487;-82
2021/06/30 03:26:08;;;;;;;13.03;8.00;;;;;;;14.85;81.97;100962.25;5007605;28;20433;-86
2021/06/30 03:28:39;;;;;;;9.80;7.30;;;;;;;15.49;82.67;101081.69;5004168;28;20475;-83
2021/06/30 03:31:23;;;;;;;14.50;8.23;;;;;;;15.41;82.29;101050.38;5003972;28;20471;-83
2021/06/30 03:33:55;;;;;;;12.10;7.80;;;;;;;15.58;82.37;101088.44;5013139;28;20578;-83
2021/06/30 03:36:32;;;;;;;14.40;9.10;;;;;;;15.46;82.84;101085.66;5008350;28;20439;-83
2021/06/30 03:40:05;;;;;;;11.43;8.63;;;;;;;15.35;83.03;101054.78;5021804;28;20432;-82
2021/06/30 03:42:36;;;;;;;18.20;9.10;;;;;;;15.48;82.60;101078.16;5017098;28;20455;-82
2021/06/30 03:45:10;;;;;;;13.20;8.60;;;;;;;14.76;82.92;100963.59;5006322;28;20432;-81
2021/06/30 03:47:44;;;;;;;14.40;7.97;;;;;;;15.58;82.62;101078.44;5007493;28;20427;-83
2021/06/30 03:50:16;;;;;;;16.70;8.93;;;;;;;15.65;82.31;101078.38;5009655;28;20447;-82
2021/06/30 03:52:53;;;;;;;19.23;9.67;;;;;;;15.53;82.74;101072.88;5009410;28;20456;-82
2021/06/30 03:56:14;;;;;;;;;;;;;;;;;;;;;
2021/06/30 04:02:06;;;;;;;12.43;8.60;;;;;;;15.34;82.79;101074.78;4994804;28;20469;-81
2021/06/30 04:04:43;;;;;;;12.30;8.10;;;;;;;15.60;82.16;101075.53;5018321;28;20436;-82
2021/06/30 04:07:24;;;;;;;23.10;8.83;;;;;;;15.55;82.04;101072.69;5007072;28;20467;-84
2021/06/30 04:10:00;;;;;;;15.70;8.30;;;;;;;15.48;82.26;101075.47;5001708;28;20619;-82
2021/06/30 04:13:15;;;;;;;13.30;8.30;;;;;;;15.56;82.13;101072.47;5012260;28;20463;-82
2021/06/30 04:16:13;;;;;;;13.10;7.10;;;;;;;15.63;82.00;101064.25;4912862;28;20502;-82
2021/06/30 04:18:59;;;;;;;14.03;8.30;;;;;;;15.65;81.84;101062.16;5005613;28;20466;-82
2021/06/30 04:21:40;;;;;;;14.87;8.50;;;;;;;15.64;81.47;101068.59;5022391;28;20475;-84
2021/06/30 04:24:24;;;;;;;16.10;7.70;;;;;;;15.68;81.19;101058.19;5004616;28;20433;-83
2021/06/30 04:26:56;;;;;;;15.77;7.93;;;;;;;15.64;81.38;101056.97;5023809;28;20431;-82
2021/06/30 04:29:59;;;;;;;9.80;7.07;;;;;;;15.44;81.50;101041.81;5023457;28;20424;-82
2021/06/30 04:33:03;;;;;;;11.20;7.50;;;;;;;15.54;81.63;101055.63;5005589;28;20464;-81
2021/06/30 04:35:48;;;;;;;17.47;8.23;;;;;;;15.29;81.04;100985.44;5005887;28;20471;-80
2021/06/30 04:38:25;;;;;;;12.83;7.70;;;;;;;15.74;80.54;101041.91;5022792;28;20428;-85
2021/06/30 04:44:10;;;;;;;16.63;8.27;;;;;;;15.50;81.71;101056.28;4994210;28;20458;-83
2021/06/30 04:47:01;;;;;;;15.57;8.30;;;;;;;15.51;80.70;101007.44;5012708;28;20436;-82
2021/06/30 04:49:38;;;;;;;16.93;8.13;;;;;;;15.40;80.59;100977.63;5005316;28;20440;-83
2021/06/30 04:52:12;;;;;;;13.30;8.70;;;;;;;15.68;80.45;101029.28;5010337;28;20459;-81
2021/06/30 04:54:41;;;;;;;14.60;8.73;;;;;;;14.92;80.72;100931.41;5011863;28;20429;-81
2021/06/30 04:57:18;;;;;;;12.93;8.27;;;;;;;15.24;81.39;100995.28;5004627;28;20445;-82
2021/06/30 05:00:17;;;;;;;14.73;7.60;;;;;;;15.68;80.70;101033.84;4998486;28;20507;-80
2021/06/30 05:03:02;;;;;;;;;;;;;;;;;;;;;
2021/06/30 05:05:49;;;;;;;13.33;7.83;;;;;;;15.67;80.69;101030.28;5023044;28;20483;-83
2021/06/30 05:08:25;;;;;;;16.40;8.30;;;;;;;15.65;80.72;101026.16;5021182;28;20404;-81
2021/06/30 05:11:02;;;;;;;14.70;7.80;;;;;;;15.68;80.75;101028.44;5007461;28;20458;-80
2021/06/30 05:14:03;;;;;;;13.63;7.80;;;;;;;15.04;80.93;100939.63;5011435;28;20471;-80
2021/06/30 05:16:34;;;;;;;13.60;8.03;;;;;;;15.67;81.68;101043.00;5022082;28;20921;-80
2021/06/30 05:19:37;;;;;;;20.97;8.40;;;;;;;15.76;80.95;101037.06;5020300;28;20439;-80
2021/06/30 05:22:20;;;;;;;13.47;8.10;;;;;;;15.71;81.45;101045.06;5009416;28;20432;-83
2021/06/30 05:25:01;;;;;;;13.90;8.40;;;;;;;15.86;81.05;101044.66;5013253;28;20438;-80
2021/06/30 05:27:32;;;;;;;16.00;8.00;;;;;;;15.05;81.00;100927.75;5001370;28;20956;-81
2021/06/30 05:30:11;;;;;;;17.07;8.10;;;;;;;15.89;79.96;101049.59;5022724;28;21032;-80
2021/06/30 05:32:59;;;;;;;16.03;7.67;;;;;;;15.81;80.02;101058.03;5009264;28;20484;-82
2021/06/30 05:35:55;;;;;;;16.50;7.03;;;;;;;15.89;80.73;101057.72;5011104;28;20454;-83
2021/06/30 05:38:47;;;;;;;17.70;8.07;;;;;;;15.79;80.79;101077.22;5005850;28;20492;-80
2021/06/30 05:41:21;;;;;;;11.70;7.03;;;;;;;16.00;80.11;101059.66;4998962;28;20451;-82
2021/06/30 05:43:56;;;;;;;13.40;7.40;;;;;;;15.37;80.37;100944.59;5019882;28;20456;-82
2021/06/30 05:46:48;;;;;;;14.30;7.27;;;;;;;15.93;80.46;101056.19;5012606;28;20432;-82
2021/06/30 05:49:48;;;;;;;12.57;6.83;;;;;;;15.88;81.52;101061.50;5006885;28;20441;-82
2021/06/30 05:52:28;;;;;;;15.73;7.50;;;;;;;15.94;80.40;101057.88;4998932;28;20456;-81
2021/06/30 05:55:57;;;;;;;9.60;6.63;;;;;;;15.87;80.95;101051.69;5004795;28;20431;-80
2021/06/30 05:58:29;;;;;;;13.97;7.37;;;;;;;15.87;81.46;101045.47;4973210;28;20439;-83
2021/06/30 06:01:06;;;;;;;14.10;7.17;;;;;;;15.96;81.58;101060.31;5011383;28;20456;-81
2021/06/30 06:03:42;;;;;;;15.13;7.27;;;;;;;15.54;80.17;100928.56;5009388;28;20423;-82
2021/06/30 06:06:14;;;;;;;13.03;6.50;;;;;;;16.17;80.12;101038.19;5010713;28;20540;-82
2021/06/30 06:09:01;;;;;;;13.80;7.27;;;;;;;15.99;80.51;101030.94;5010983;28;20446;-83
2021/06/30 06:14:24;;;;;;;12.23;7.00;;;;;;;16.19;80.57;101048.75;5023608;28;20532;-81
2021/06/30 06:17:10;;;;;;;11.67;6.57;;;;;;;16.15;80.35;101053.00;5010803;28;20447;-82
2021/06/30 06:19:51;;;;;;;12.60;7.23;;;;;;;16.32;79.69;101054.00;5005877;28;20432;-83
2021/06/30 06:22:44;;;;;;;14.50;7.23;;;;;;;15.65;79.85;100962.13;5008403;28;20444;-82
2021/06/30 06:25:31;;;;;;;14.07;7.67;;;;;;;15.98;79.45;101053.63;5008813;28;20439;-86
2021/06/30 06:28:19;;;;;;;13.80;7.57;;;;;;;15.99;79.35;101057.97;5009006;28;20432;-81
2021/06/30 06:30:51;;;;;;;16.70;6.70;;;;;;;15.36;79.43;100939.41;5009305;28;20535;-84
2021/06/30 06:33:21;;;;;;;17.20;8.03;;;;;;;16.03;80.21;101070.00;5012920;28;20460;-81
2021/06/30 06:36:06;;;;;;;;;;;;;;;;;;;;;
2021/06/30 06:38:35;;;;;;;13.87;7.23;;;;;;;15.89;80.13;101037.97;5023276;28;20516;-81
2021/06/30 06:41:16;;;;;;;14.13;7.93;;;;;;;16.01;79.64;101055.06;5005558;28;20543;-82
2021/06/30 06:43:43;;;;;;;11.97;6.57;;;;;;;16.12;79.72;101072.41;5009110;28;20436;-81
2021/06/30 06:46:19;;;;;;;17.87;7.20;;;;;;;16.26;79.13;101071.97;5011778;28;20466;-81
2021/06/30 06:48:50;;;;;;;14.10;7.20;;;;;;;16.07;80.05;101086.59;5002203;28;20439;-80
2021/06/30 06:51:44;;;;;;;14.10;7.37;;;;;;;15.86;80.43;101049.25;5015630;28;20449;-80
2021/06/30 06:54:12;;;;;;;14.17;7.70;;;;;;;15.64;81.33;101056.97;5004061;28;20473;-81
2021/06/30 06:56:47;;;;;;;13.43;7.40;;;;;;;15.73;80.26;101023.19;5003865;28;20432;-83
2021/06/30 06:59:46;;;;;;;15.00;8.53;;;;;;;15.35;80.52;100976.41;5021168;28;21065;-85
2021/06/30 07:02:31;;;;;;;15.53;8.03;;;;;;;16.16;79.48;101104.16;5018804;28;20508;-81
2021/06/30 07:05:09;;;;;;;16.37;7.03;;;;;;;15.75;80.25;101029.19;5009567;28;20436;-81
2021/06/30 07:08:06;;;;;;;15.70;7.53;;;;;;;16.04;79.47;101096.00;5021621;28;20433;-82
2021/06/30 07:10:36;;;;;;;16.93;7.17;;;;;;;15.55;79.16;100997.78;5003058;28;20467;-81
2021/06/30 07:13:02;;;;;;;11.73;6.87;;;;;;;15.69;80.60;101047.16;5011819;28;20499;-81
2021/06/30 07:15:30;;;;;;;13.83;7.57;;;;;;;15.88;80.77;101095.81;5004605;28;20431;-81
2021/06/30 07:18:02;;;;;;;14.17;7.60;;;;;;;15.96;81.06;101119.84;5001643;28;20185;-80
2021/06/30 07:20:31;;;;;;;18.03;7.43;;;;;;;15.68;80.77;101047.38;5014182;28;20443;-81
2021/06/30 07:23:17;;;;;;;14.63;7.10;;;;;;;16.04;80.43;101098.72;5004856;28;20431;-82
2021/06/30 07:25:50;;;;;;;18.90;6.63;;;;;;;16.00;81.23;101110.22;5011338;28;20484;-81
2021/06/30 07:28:46;;;;;;;10.77;6.53;;;;;;;16.01;81.33;101103.75;5008629;28;20448;-80
2021/06/30 07:31:11;;;;;;;14.07;7.20;;;;;;;16.08;80.34;101111.78;5019166;28;20464;-82
2021/06/30 07:33:43;;;;;;;12.27;6.90;;;;;;;15.28;80.66;100991.09;5005354;28;20841;-81
2021/06/30 07:36:13;;;;;;;18.93;6.97;;;;;;;15.74;80.44;101058.13;5023395;28;20181;-81
2021/06/30 07:38:48;;;;;;;13.97;6.80;;;;;;;15.93;81.58;101099.47;5005551;28;20480;-81
2021/06/30 07:41:20;;;;;;;14.03;7.40;;;;;;;15.19;81.18;100995.97;5008543;28;20456;-84
2021/06/30 07:44:00;;;;;;;16.93;7.63;;;;;;;15.65;81.91;101080.25;5012995;28;20436;-81
2021/06/30 07:46:32;;;;;;;11.83;7.13;;;;;;;15.76;82.04;101085.75;5005648;28;20431;-80
2021/06/30 07:49:15;;;;;;;15.80;7.27;;;;;;;14.88;81.86;100937.50;5004967;28;20433;-80
2021/06/30 07:51:44;;;;;;;14.87;8.40;;;;;;;15.92;81.76;101105.94;5008631;28;20451;-83
2021/06/30 07:54:33;;;;;;;20.30;7.97;;;;;;;15.99;82.23;101106.69;5012100;28;20451;-82
2021/06/30 07:56:59;;;;;;;11.80;7.23;;;;;;;14.96;82.46;100958.00;5018664;28;20475;-83
2021/06/30 07:59:25;;;;;;;11.07;7.47;;;;;;;15.75;83.93;101140.91;5014476;28;20443;-82
2021/06/30 08:01:57;;;;;;;13.53;6.47;;;;;;;15.50;83.74;101059.81;5005433;28;20460;-84
2021/06/30 08:04:35;;;;;;;14.93;6.73;;;;;;;15.67;84.61;101116.81;5008150;28;20412;-84
2021/06/30 08:07:06;;;;;;;19.77;8.57;;;;;;;15.44;84.67;101054.50;5023227;28;20425;-82
2021/06/30 08:09:41;;;;;;;12.33;7.40;;;;;;;15.90;83.48;101126.16;5012045;28;20437;-82
2021/06/30 08:12:58;;;;;;;12.50;6.90;;;;;;;15.91;82.71;101112.44;5019006;28;20427;-84
2021/06/30 08:15:29;;;;;;;10.57;7.20;;;;;;;15.47;83.58;101113.53;5004750;28;20502;-82
2021/06/30 08:18:07;;;;;;;13.63;6.20;;;;;;;15.70;84.14;101148.84;5007507;28;20424;-82
2021/06/30 08:20:59;;;;;;;15.70;7.20;;;;;;;15.68;83.78;101150.13;5017690;28;20460;-82
2021/06/30 08:23:32;;;;;;;12.03;7.13;;;;;;;15.80;82.57;101121.31;5022348;28;20436;-83
2021/06/30 08:26:13;;;;;;;11.03;6.47;;;;;;;15.81;82.31;101131.06;5009683;28;20435;-82
2021/06/30 08:28:51;;;;;;;15.90;7.90;;;;;;;15.75;82.57;101132.78;5007611;28;20499;-81
2021/06/30 08:31:58;;;;;;;11.07;6.83;;;;;;;15.74;83.40;101141.97;5023942;28;20441;-82
2021/06/30 08:34:31;;;;;;;10.87;5.90;;;;;;;15.65;84.23;101139.72;5020542;28;20435;-85
2021/06/30 08:37:10;;;;;;;9.70;6.70;;;;;;;15.43;84.02;101090.69;5007583;28;20505;-85
2021/06/30 08:40:17;;;;;;;14.90;7.30;;;;;;;15.97;83.60;101140.44;5007230;28;20466;-85
2021/06/30 08:43:23;;;;;;;10.77;6.97;;;;;;;15.24;84.69;101030.41;5001540;28;20951;-84
2021/06/30 08:46:02;;;;;;;13.77;7.37;;;;;;;15.69;84.70;101109.34;4987323;28;20476;-87
2021/06/30 08:48:44;;;;;;;10.70;7.90;;;;;;;15.66;86.28;101125.19;5006404;28;20416;-85
2021/06/30 08:51:22;;;;;;;12.30;6.93;;;;;;;15.89;85.07;101119.13;5000494;28;20526;-85
2021/06/30 08:54:04;;;;;;;10.03;6.97;;;;;;;15.93;85.66;101120.28;5002473;28;20535;-86
2021/06/30 08:56:33;;;;;;;9.77;6.77;;;;;;;15.85;85.71;101132.25;5016577;28;22336;-86
2021/06/30 08:59:03;;;;;;;11.60;7.17;;;;;;;15.79;86.44;101128.59;5006290;28;20421;-84
2021/06/30 09:01:33;;;;;;;10.10;6.90;;;;;;;15.71;85.73;101107.25;4999311;28;20456;-85
2021/06/30 09:04:02;;;;;;;12.43;7.13;;;;;;;15.82;86.02;101127.28;5018959;28;20412;-85
2021/06/30 09:06:35;;;;;;;6.77;6.00;;;;;;;15.31;86.15;101047.38;5004747;28;20463;-87
2021/06/30 09:09:17;;;;;;;9.80;6.30;;;;;;;15.94;86.33;101128.19;5004976;28;20432;-86
2021/06/30 09:12:10;;;;;;;12.80;7.37;;;;;;;15.78;85.07;101085.53;5015390;28;20462;-85
2021/06/30 09:14:50;;;;;;;8.90;6.23;;;;;;;16.05;85.56;101118.47;5008701;28;20456;-87
2021/06/30 09:17:47;;;;;;;14.93;7.40;;;;;;;15.80;85.61;101073.44;5012000;28;20460;-87
2021/06/30 09:20:21;;;;;;;8.40;6.20;;;;;;;15.86;85.06;101087.94;5000329;28;20468;-84
2021/06/30 09:22:57;;;;;;;9.93;6.60;;;;;;;16.17;84.44;101129.34;4997841;28;20463;-84
2021/06/30 09:26:16;;;;;;;8.73;6.70;;;;;;;15.90;85.73;101127.00;5008530;28;20739;-85
2021/06/30 09:29:09;;;;;;;9.10;6.10;;;;;;;15.47;85.74;101087.31;4996581;28;20470;-85
2021/06/30 09:31:40;;;;;;;10.40;6.20;;;;;;;15.07;85.15;101027.47;5017419;28;20492;-85
2021/06/30 09:34:30;;;;;;;8.63;5.90;;;;;;;16.00;84.91;101127.28;5011244;28;20487;-83
2021/06/30 09:37:22;;;;;;;8.40;6.10;;;;;;;15.97;84.65;101124.22;5010579;28;20433;-84
2021/06/30 09:40:30;;;;;;;9.23;5.40;;;;;;;15.93;85.75;101131.13;5023306;28;20437;-82
2021/06/30 09:43:34;;;;;;;7.00;4.93;;;;;;;15.89;85.35;101127.22;4944604;29;20443;-84
2021/06/30 09:46:28;;;;;;;8.33;4.27;;;;;;;15.99;85.28;101124.78;4943301;28;20444;-83
2021/06/30 09:49:11;;;;;;;9.03;4.63;;;;;;;15.91;87.07;101131.38;5004470;28;20480;-84
2021/06/30 09:51:48;;;;;;;10.30;5.03;;;;;;;16.20;84.57;101128.88;5006195;28;20461;-82
2021/06/30 09:54:32;;;;;;;7.67;4.50;;;;;;;15.46;86.03;101019.97;5004562;28;20527;-83
2021/06/30 09:57:16;;;;;;;7.77;4.17;;;;;;;16.03;84.75;101129.53;5007173;28;20429;-84
2021/06/30 10:00:26;;;;;;;5.60;4.03;;;;;;;16.24;84.37;101138.22;5003152;28;20445;-82
2021/06/30 10:03:00;;;;;;;5.20;3.77;;;;;;;16.18;85.20;101128.31;4966183;28;20554;-83
2021/06/30 10:05:28;;;;;;;5.43;3.87;;;;;;;16.19;85.74;101129.94;4998773;28;20449;-79
2021/06/30 10:08:19;;;;;;;4.00;3.60;;;;;;;16.28;83.13;101123.16;4999189;28;20476;-81
2021/06/30 10:10:54;;;;;;;3.83;3.37;;;;;;;15.87;82.83;101040.06;5014544;28;20606;-81
2021/06/30 10:13:32;;;;;;;6.00;3.00;;;;;;;16.55;83.17;101126.31;5006748;28;20519;-81
2021/06/30 10:16:07;;;;;;;2.80;2.60;;;;;;;16.43;84.35;101129.00;5008942;28;20495;-82
2021/06/30 10:18:40;;;;;;;4.37;2.83;;;;;;;16.64;83.55;101135.75;4998827;28;20495;-81
2021/06/30 10:21:06;;;;;;;4.20;3.83;;;;;;;16.38;82.53;101054.94;5014861;28;20482;-81
2021/06/30 10:23:32;;;;;;;4.23;3.47;;;;;;;16.70;82.46;101139.44;5015121;28;20416;-82
2021/06/30 10:25:58;;;;;;;4.00;3.13;;;;;;;16.55;82.07;101112.78;4999505;28;20236;-81
2021/06/30 10:28:30;;;;;;;3.90;3.37;;;;;;;16.87;81.83;101147.75;4997963;28;20190;-81
2021/06/30 10:30:56;;;;;;;3.30;3.00;;;;;;;16.56;83.47;101109.00;4995508;28;20205;-81
2021/06/30 10:33:40;;;;;;;3.80;3.07;;;;;;;16.44;81.88;101060.25;5003686;28;20456;-81
2021/06/30 10:36:10;;;;;;;2.70;2.40;;;;;;;16.99;82.42;101128.78;4999228;28;20424;-81
2021/06/30 10:38:56;;;;;;;3.73;2.73;;;;;;;16.81;81.55;101133.25;4997064;28;20456;-81
2021/06/30 10:41:55;;;;;;;4.57;2.47;;;;;;;16.74;82.29;101129.78;4997502;28;20492;-80
2021/06/30 10:44:25;;;;;;;5.03;3.10;;;;;;;16.16;82.53;101060.06;5015626;28;20435;-80
2021/06/30 10:46:54;;;;;;;2.67;2.47;;;;;;;16.44;82.29;101143.34;5015944;28;20428;-80
2021/06/30 10:49:41;;;;;;;2.83;2.53;;;;;;;16.38;81.59;101141.56;5011334;28;20529;-80
2021/06/30 10:52:10;;;;;;;2.70;2.50;;;;;;;16.47;80.75;101145.59;5006496;28;20428;-81
2021/06/30 10:54:46;;;;;;;3.33;2.63;;;;;;;16.18;81.49;101106.66;5010425;28;20425;-81
2021/06/30 10:57:28;;;;;;;2.60;2.50;;;;;;;16.25;81.06;101051.38;5017741;28;20945;-80
2021/06/30 11:00:06;;;;;;;3.50;2.80;;;;;;;16.57;82.36;101136.91;5005657;28;20953;-80
2021/06/30 11:02:35;;;;;;;3.10;2.50;;;;;;;16.44;81.96;101097.34;5016172;28;20472;-80
2021/06/30 11:05:13;;;;;;;3.17;2.90;;;;;;;16.50;83.50;101142.44;5016220;28;20444;-82
2021/06/30 11:07:40;;;;;;;6.20;2.83;;;;;;;16.28;85.39;101150.22;5016236;28;20444;-83
2021/06/30 11:10:37;;;;;;;3.80;3.10;;;;;;;16.39;82.84;101146.75;5006704;28;20456;-81
2021/06/30 11:13:09;;;;;;;3.70;3.23;;;;;;;16.36;83.17;101147.19;5009133;28;20485;-80
2021/06/30 11:15:43;;;;;;;4.37;3.07;;;;;;;16.46;82.94;101152.91;5000713;28;20539;-80
2021/06/30 11:18:11;;;;;;;5.20;3.67;;;;;;;16.43;83.49;101145.25;5000247;28;20435;-80
2021/06/30 11:21:04;;;;;;;6.70;4.10;;;;;;;15.89;82.93;101087.47;5017815;28;20484;-80
2021/06/30 11:23:30;;;;;;;6.17;3.93;;;;;;;15.87;82.63;101123.91;5004464;28;20439;-80
2021/06/30 11:26:29;;;;;;;5.20;3.63;;;;;;;15.96;82.20;101155.84;5007227;28;20441;-80
2021/06/30 11:28:54;;;;;;;8.10;4.47;;;;;;;15.49;80.75;101103.31;5017471;28;20215;-80
2021/06/30 11:31:32;;;;;;;7.73;5.03;;;;;;;15.94;81.05;101154.41;5015452;28;20473;-80
2021/06/30 11:34:22;;;;;;;6.47;4.73;;;;;;;15.82;82.59;101168.72;5015659;28;20208;-80
2021/06/30 11:36:53;;;;;;;11.13;4.80;;;;;;;15.76;82.11;101164.19;5003412;28;20440;-80
2021/06/30 11:39:27;;;;;;;8.33;5.30;;;;;;;15.89;82.46;101163.22;5004726;28;20929;-80
2021/06/30 11:42:18;;;;;;;6.77;4.77;;;;;;;15.63;83.26;101125.63;5008232;28;20531;-79
2021/06/30 11:45:12;;;;;;;9.80;4.90;;;;;;;15.89;83.84;101168.63;5010262;28;20436;-79
2021/06/30 11:47:53;;;;;;;6.57;5.00;;;;;;;15.78;84.19;101177.50;5007491;28;20544;-81
2021/06/30 11:50:24;;;;;;;5.77;4.60;;;;;;;15.90;83.65;101175.69;4998167;28;20456;-79
2021/06/30 11:52:51;;;;;;;8.30;5.00;;;;;;;15.95;82.04;101156.91;4999166;28;20472;-79
2021/06/30 11:55:25;;;;;;;5.93;4.70;;;;;;;15.25;82.83;101059.09;5007587;28;20432;-81
2021/06/30 11:57:56;;;;;;;8.00;4.70;;;;;;;15.70;83.96;101153.44;5006789;28;20467;-81
2021/06/30 12:00:32;;;;;;;8.60;5.57;;;;;;;15.83;84.22;101161.41;5002229;28;20470;-80
2021/06/30 12:03:11;;;;;;;8.20;5.40;;;;;;;16.02;83.09;101162.22;5014847;28;20432;-82
2021/06/30 12:05:41;;;;;;;11.23;5.43;;;;;;;16.11;83.62;101162.72;5011971;28;20495;-81
2021/06/30 12:08:08;;;;;;;6.90;4.60;;;;;;;15.59;84.78;101122.53;5003684;28;20439;-80
2021/06/30 12:11:22;;;;;;;8.83;4.70;;;;;;;15.43;83.51;101061.78;5007220;28;20478;-82
2021/06/30 12:13:23;;;;;;;5.10;3.90;;;;;;;12.75;83.49;100658.94;5008422;28;20927;-80
2021/06/30 12:15:48;;;;;;;7.33;3.83;;;;;;;15.38;83.65;101094.06;5006944;28;20469;-82
2021/06/30 12:18:28;;;;;;;4.43;3.70;;;;;;;15.62;83.68;101129.38;5007289;28;20250;-82
2021/06/30 12:20:59;;;;;;;8.17;4.30;;;;;;;15.31;84.60;101110.34;5010763;28;20200;-82
2021/06/30 12:23:25;;;;;;;5.97;3.23;;;;;;;15.85;83.67;101159.28;5018680;28;20432;-81
2021/06/30 12:26:03;;;;;;;6.03;3.13;;;;;;;15.15;84.03;101075.81;5019536;28;20500;-81
2021/06/30 12:28:29;;;;;;;5.30;3.60;;;;;;;15.37;84.41;101090.53;5006586;28;20173;-81
2021/06/30 12:31:08;;;;;;;9.50;3.73;;;;;;;15.12;84.61;101070.84;5017838;28;20463;-81
2021/06/30 12:33:35;;;;;;;6.37;3.70;;;;;;;15.91;84.61;101181.91;5005428;28;20284;-81
2021/06/30 12:36:00;;;;;;;6.10;3.47;;;;;;;14.99;83.81;101071.81;5005097;28;20436;-82
2021/06/30 12:38:32;;;;;;;3.50;2.73;;;;;;;15.48;84.43;101139.53;5003906;28;20463;-82
2021/06/30 12:41:18;;;;;;;5.67;3.23;;;;;;;14.96;84.05;101090.34;5003444;28;20201;-81
2021/06/30 12:44:00;;;;;;;6.23;3.37;;;;;;;14.97;84.57;101073.91;5012663;28;20485;-80
2021/06/30 12:46:26;;;;;;;5.30;3.63;;;;;;;15.60;84.14;101192.63;5003070;28;20432;-80
2021/06/30 12:49:00;;;;;;;6.00;4.47;;;;;;;14.94;84.74;101066.25;5010211;28;20463;-84
2021/06/30 12:51:49;;;;;;;8.57;3.80;;;;;;;15.56;84.32;101174.34;5010463;28;20212;-82